Time;durP1;ratioP1;P1;durP2;ratioP2;P2;SDS_P1;SDS_P2;PMS_P1;PMS_P2;Temp;Humidity;BMP_temperature;BMP_pressure;BME280_temperature;BME280_humidity;BME280_pressure;Samples;Min_cycle;Max_cycle;Signal;HPM_P1;HPM_P2
2022/09/13 00:00:34;;;;;;;21.77;12.57;;;;;;;-145.18;100.00;46679.94;4933690;29;20047;-70
2022/09/13 00:03:00;;;;;;;16.83;12.73;;;;;;;-145.18;100.00;46681.88;4932836;29;20134;-70
2022/09/13 00:05:26;;;;;;;17.00;12.40;;;;;;;-145.18;100.00;46683.84;4933926;29;20094;-70
2022/09/13 00:07:53;;;;;;;16.23;13.00;;;;;;;-145.18;100.00;46681.88;4934265;29;20098;-69
2022/09/13 00:10:19;;;;;;;18.50;12.93;;;;;;;-145.18;100.00;46679.94;4937355;29;20042;-70
2022/09/13 00:12:46;;;;;;;15.43;12.70;;;;;;;-145.18;100.00;46679.94;4936963;29;20099;-70
2022/09/13 00:15:11;;;;;;;14.93;12.67;;;;;;;-145.18;100.00;46660.41;4936931;29;20038;-70
2022/09/13 00:17:37;;;;;;;17.80;13.10;;;;;;;-145.18;100.00;46660.41;4937064;29;20678;-70
2022/09/13 00:20:03;;;;;;;17.10;13.40;;;;;;;-145.18;100.00;46679.94;4937046;29;20039;-70
2022/09/13 00:22:28;;;;;;;14.00;12.37;;;;;;;-145.18;100.00;46679.94;4937271;29;20134;-70
2022/09/13 00:24:54;;;;;;;14.83;13.30;;;;;;;-145.18;100.00;46679.94;4937565;29;20123;-70
2022/09/13 00:27:19;;;;;;;17.20;12.90;;;;;;;-145.18;100.00;46677.97;4936756;29;20047;-69
2022/09/13 00:29:45;;;;;;;16.63;11.90;;;;;;;-145.18;100.00;46660.41;4937552;29;20074;-70
2022/09/13 00:32:10;;;;;;;17.37;12.77;;;;;;;-145.18;100.00;46677.97;4936999;29;20096;-69
2022/09/13 00:34:35;;;;;;;17.93;13.13;;;;;;;-145.18;100.00;46644.78;4937300;29;20391;-69
2022/09/13 00:37:01;;;;;;;18.60;12.30;;;;;;;-145.18;100.00;46681.88;4920550;29;20040;-69
2022/09/13 00:39:27;;;;;;;16.10;12.27;;;;;;;-145.18;100.00;46646.72;4917997;29;20036;-69
2022/09/13 00:41:53;;;;;;;18.10;13.17;;;;;;;-145.18;100.00;46679.94;4917297;29;20479;-70
2022/09/13 00:44:49;;;;;;;16.63;12.60;;;;;;;-145.18;100.00;46679.94;4917694;29;20119;-70
2022/09/13 00:47:18;;;;;;;;;;;;;;;-145.18;100.00;46660.41;4917433;29;20043;-70
2022/09/13 00:49:46;;;;;;;16.23;12.43;;;;;;;-145.18;100.00;46679.94;4917407;29;19919;-69
2022/09/13 00:52:17;;;;;;;15.73;13.60;;;;;;;-145.18;100.00;46648.69;4916860;29;20099;-70
2022/09/13 00:54:49;;;;;;;15.33;12.23;;;;;;;-145.18;100.00;46660.41;4917419;29;20032;-69
2022/09/13 00:57:17;;;;;;;22.33;13.00;;;;;;;-145.18;100.00;46679.94;4916679;29;20116;-69
2022/09/13 00:59:47;;;;;;;17.17;14.30;;;;;;;-145.18;100.00;46660.41;4917404;29;20100;-68
2022/09/13 01:02:14;;;;;;;21.37;13.23;;;;;;;-145.18;100.00;46660.41;4916451;29;20561;-69
2022/09/13 01:04:40;;;;;;;15.87;14.10;;;;;;;-145.18;100.00;46679.94;4917378;29;20040;-69
2022/09/13 01:07:10;;;;;;;17.13;13.37;;;;;;;-145.18;100.00;46660.41;4916675;29;20036;-69
2022/09/13 01:09:38;;;;;;;19.57;13.37;;;;;;;-145.18;100.00;46679.94;4916963;29;20032;-68
2022/09/13 01:12:19;;;;;;;16.93;12.40;;;;;;;-145.18;100.00;46660.41;4916640;29;20167;-69
2022/09/13 01:14:46;;;;;;;17.47;13.30;;;;;;;-145.18;100.00;46679.94;4917463;29;20042;-69
2022/09/13 01:17:12;;;;;;;16.77;11.90;;;;;;;-145.18;100.00;46660.41;4916265;29;20069;-70
2022/09/13 01:19:37;;;;;;;16.00;12.50;;;;;;;-145.18;100.00;46660.41;4916117;29;20056;-70
2022/09/13 01:22:33;;;;;;;18.93;12.53;;;;;;;-145.18;100.00;46660.41;4916397;29;20040;-69
2022/09/13 01:25:32;;;;;;;13.82;12.40;;;;;;;-145.18;100.00;46660.41;4916882;29;20039;-69
2022/09/13 01:28:11;;;;;;;15.50;12.23;;;;;;;-145.18;100.00;46660.41;4916654;29;20067;-69
2022/09/13 01:30:58;;;;;;;15.50;12.43;;;;;;;-145.18;100.00;46660.41;4917014;29;20020;-69
2022/09/13 01:33:52;;;;;;;16.50;12.93;;;;;;;-145.18;100.00;46660.41;4916364;29;20052;-69
2022/09/13 01:36:34;;;;;;;15.90;13.27;;;;;;;-145.18;100.00;46660.41;4880785;29;20538;-69
2022/09/13 01:39:16;;;;;;;16.03;13.53;;;;;;;-145.18;100.00;46660.41;4916491;29;20040;-69
2022/09/13 01:42:00;;;;;;;16.33;12.53;;;;;;;-145.18;100.00;46660.41;4916531;29;20103;-69
2022/09/13 01:44:35;;;;;;;16.30;13.03;;;;;;;-145.18;100.00;46660.41;4916332;29;20028;-69
2022/09/13 01:47:22;;;;;;;17.48;12.93;;;;;;;-145.18;100.00;46660.41;4916136;29;20036;-69
2022/09/13 01:49:58;;;;;;;16.70;12.63;;;;;;;-145.18;100.00;46660.41;4916452;29;20067;-69
2022/09/13 01:52:35;;;;;;;18.27;13.87;;;;;;;-145.18;100.00;46660.41;4915911;29;20068;-69
2022/09/13 01:55:15;;;;;;;16.20;14.40;;;;;;;-145.18;100.00;46660.41;4916366;29;20047;-69
2022/09/13 01:58:03;;;;;;;16.30;13.03;;;;;;;-145.18;100.00;46660.41;4916231;29;20051;-69
